createdAt,value
2024-04-15T00:00:18.658Z,96038.84
2024-04-15T00:02:45.576Z,96045.81
2024-04-15T00:05:15.076Z,96037.25
2024-04-15T00:07:41.968Z,96034.59
2024-04-15T00:10:11.788Z,96029.50
2024-04-15T00:12:38.708Z,96027.88
2024-04-15T00:15:11.177Z,96021.75
2024-04-15T00:17:38.065Z,96016.66
2024-04-15T00:20:08.090Z,96024.13
2024-04-15T00:22:34.991Z,96017.19
2024-04-15T00:25:04.613Z,96009.16
2024-04-15T00:27:31.530Z,95999.53
2024-04-15T00:30:00.973Z,95997.91
2024-04-15T00:32:30.439Z,96009.69
2024-04-15T00:34:59.998Z,96016.91
2024-04-15T00:37:26.918Z,95996.59
2024-04-15T00:39:56.683Z,95995.75
2024-04-15T00:42:24.224Z,95994.97
2024-04-15T00:44:54.659Z,95993.38
2024-04-15T00:47:21.549Z,96000.59
2024-04-15T00:49:54.382Z,95990.97
2024-04-15T00:52:21.879Z,95986.69
2024-04-15T00:54:51.603Z,95993.91
2024-04-15T00:57:18.579Z,95998.44
2024-04-15T00:59:49.215Z,95980.81
2024-04-15T01:02:16.142Z,95977.31
2024-04-15T01:04:45.722Z,95979.19
2024-04-15T01:07:15.357Z,95975.72
2024-04-15T01:09:44.885Z,95966.09
2024-04-15T01:12:11.999Z,95966.09
2024-04-15T01:14:41.411Z,95961.00
2024-04-15T01:17:08.335Z,95961.00
2024-04-15T01:19:37.751Z,95967.41
2024-04-15T01:22:08.446Z,95957.81
2024-04-15T01:24:42.698Z,95947.38
2024-04-15T01:27:09.571Z,95959.13
2024-04-15T01:29:38.976Z,95965.25
2024-04-15T01:32:06.835Z,95956.72
2024-04-15T01:34:36.398Z,95954.03
2024-04-15T01:37:03.488Z,95949.75
2024-04-15T01:39:32.890Z,95951.63
2024-04-15T01:42:02.356Z,95945.75
2024-04-15T01:44:32.650Z,95933.44
2024-04-15T01:46:59.506Z,95931.56
2024-04-15T01:49:29.051Z,95937.16
2024-04-15T01:51:55.965Z,95947.06
2024-04-15T01:54:25.340Z,95941.72
2024-04-15T01:56:52.219Z,95940.13
2024-04-15T01:59:24.346Z,95936.66
2024-04-15T02:01:51.106Z,95939.31
2024-04-15T02:04:20.600Z,95941.19
2024-04-15T02:06:47.479Z,95942.25
2024-04-15T02:09:16.930Z,95938.78
2024-04-15T02:11:43.816Z,95929.97
2024-04-15T02:14:13.339Z,95932.91
2024-04-15T02:16:42.777Z,95933.72
2024-04-15T02:19:12.215Z,95932.09
2024-04-15T02:21:39.139Z,95933.19
2024-04-15T02:24:09.146Z,95930.50
2024-04-15T02:26:35.964Z,95922.75
2024-04-15T02:29:05.365Z,95936.13
2024-04-15T02:31:32.358Z,95929.16
2024-04-15T02:34:04.427Z,95926.47
2024-04-15T02:36:31.374Z,95924.88
2024-04-15T02:39:00.792Z,95921.41
2024-04-15T02:41:27.615Z,95926.75
2024-04-15T02:43:56.992Z,95919.78
2024-04-15T02:46:23.889Z,95918.19
2024-04-15T02:48:53.332Z,95928.06
2024-04-15T02:51:22.824Z,95917.38
2024-04-15T02:53:52.208Z,95917.91
2024-04-15T02:56:19.058Z,95919.53
2024-04-15T02:58:48.488Z,95923.25
2024-04-15T03:01:19.197Z,95924.06
2024-04-15T03:03:49.116Z,95931.28
2024-04-15T03:06:22.575Z,95927.00
2024-04-15T03:08:52.228Z,95921.09
2024-04-15T03:11:19.082Z,95919.25
2024-04-15T03:13:50.876Z,95918.44
2024-04-15T03:16:25.354Z,95908.84
2024-04-15T03:18:56.963Z,95911.50
2024-04-15T03:21:26.546Z,95908.84
2024-04-15T03:23:56.480Z,95914.97
2024-04-15T03:26:23.425Z,95909.09
2024-04-15T03:28:52.779Z,95905.59
2024-04-15T03:31:20.117Z,95896.78
2024-04-15T03:33:49.599Z,95889.81
2024-04-15T03:36:16.455Z,95889.81
2024-04-15T03:38:48.583Z,95893.31
2024-04-15T03:41:18.032Z,95890.91
2024-04-15T03:43:47.759Z,95891.97
2024-04-15T03:46:14.695Z,95896.53
2024-04-15T03:48:44.230Z,95890.38
2024-04-15T03:51:11.088Z,95880.75
2024-04-15T03:53:40.564Z,95885.03
2024-04-15T03:56:10.175Z,95882.63
2024-04-15T03:58:39.672Z,95884.47
2024-04-15T04:01:06.688Z,95882.06
2024-04-15T04:03:36.244Z,95872.22
2024-04-15T04:06:11.080Z,95874.88
2024-04-15T04:08:41.903Z,95878.59
2024-04-15T04:11:11.418Z,95868.97
2024-04-15T04:13:41.045Z,95876.19
2024-04-15T04:16:12.898Z,95884.22
2024-04-15T04:18:42.534Z,95886.09
2024-04-15T04:21:10.966Z,95903.97
2024-04-15T04:23:40.681Z,95894.38
2024-04-15T04:26:07.524Z,95898.09
2024-04-15T04:28:39.596Z,95895.66
2024-04-15T04:31:06.900Z,95889.28
2024-04-15T04:33:36.562Z,95891.13
2024-04-15T04:36:03.793Z,95889.28
2024-04-15T04:38:33.256Z,95884.97
2024-04-15T04:41:03.686Z,95876.16
2024-04-15T04:43:30.501Z,95881.50
2024-04-15T04:46:11.354Z,95868.41
2024-04-15T04:48:38.345Z,95868.41
2024-04-15T04:51:08.428Z,95871.88
2024-04-15T04:53:35.725Z,95880.94
2024-04-15T04:56:10.113Z,95867.84
2024-04-15T04:58:37.166Z,95872.16
2024-04-15T05:01:17.215Z,95878.53
2024-04-15T05:03:45.509Z,95873.19
2024-04-15T05:06:16.285Z,95868.69
2024-04-15T05:08:45.080Z,95870.53
2024-04-15T05:11:15.460Z,95863.34
2024-04-15T05:13:42.316Z,95868.69
2024-04-15T05:16:15.723Z,95862.50
2024-04-15T05:18:44.629Z,95864.91
2024-04-15T05:21:17.606Z,95868.94
2024-04-15T05:23:44.961Z,95878.34
2024-04-15T05:26:14.803Z,95874.59
2024-04-15T05:28:41.625Z,95878.34
2024-04-15T05:31:11.133Z,95874.63
2024-04-15T05:33:40.868Z,95864.72
2024-04-15T05:36:10.511Z,95864.72
2024-04-15T05:38:37.468Z,95874.06
2024-04-15T05:41:07.212Z,95889.03
2024-04-15T05:43:34.046Z,95897.84
2024-04-15T05:46:05.485Z,95881.25
2024-04-15T05:48:32.842Z,95888.72
2024-04-15T05:51:05.025Z,95875.88
2024-04-15T05:53:31.928Z,95866.28
2024-04-15T05:56:01.358Z,95860.09
2024-04-15T05:58:28.402Z,95864.66
2024-04-15T06:00:57.941Z,95860.09
2024-04-15T06:03:24.845Z,95865.72
2024-04-15T06:05:54.419Z,95865.72
2024-04-15T06:08:23.899Z,95879.06
2024-04-15T06:10:53.576Z,95883.88
2024-04-15T06:13:20.866Z,95870.00
2024-04-15T06:15:50.494Z,95868.38
2024-04-15T06:18:18.438Z,95867.59
2024-04-15T06:20:47.851Z,95860.63
2024-04-15T06:23:15.029Z,95858.78
2024-04-15T06:25:47.119Z,95855.56
2024-04-15T06:28:13.980Z,95867.84
2024-04-15T06:30:43.421Z,95854.75
2024-04-15T06:33:10.299Z,95851.28
2024-04-15T06:35:39.829Z,95842.19
2024-04-15T06:38:06.676Z,95844.88
2024-04-15T06:40:36.150Z,95854.50
2024-04-15T06:43:07.542Z,95856.13
2024-04-15T06:45:37.191Z,95860.63
2024-04-15T06:48:05.158Z,95845.97
2024-04-15T06:50:34.580Z,95855.84
2024-04-15T06:53:05.188Z,95851.84
2024-04-15T06:55:34.597Z,95851.63
2024-04-15T06:58:01.539Z,95846.00
2024-04-15T07:00:33.742Z,95855.06
2024-04-15T07:03:00.708Z,95848.41
2024-04-15T07:05:30.171Z,95858.31
2024-04-15T07:07:57.153Z,95859.63
2024-04-15T07:10:27.268Z,95867.13
2024-04-15T07:12:54.278Z,95861.78
2024-04-15T07:15:23.968Z,95857.22
2024-04-15T07:17:53.394Z,95855.88
2024-04-15T07:20:22.983Z,95850.53
2024-04-15T07:22:49.794Z,95859.38
2024-04-15T07:25:20.071Z,95858.56
2024-04-15T07:27:47.023Z,95859.63
2024-04-15T07:30:16.753Z,95865.22
2024-04-15T07:32:45.895Z,95866.28
2024-04-15T07:35:19.053Z,95849.44
2024-04-15T07:37:46.518Z,95837.16
2024-04-15T07:40:16.363Z,95837.16
2024-04-15T07:42:44.966Z,95847.06
2024-04-15T07:45:15.050Z,95850.28
2024-04-15T07:47:42.086Z,95848.13
2024-04-15T07:50:11.860Z,95851.03
2024-04-15T07:52:41.496Z,95849.44
2024-04-15T07:55:11.675Z,95849.72
2024-04-15T07:57:38.671Z,95848.88
2024-04-15T08:00:10.345Z,95850.78
2024-04-15T08:02:37.341Z,95850.50
2024-04-15T08:05:07.349Z,95857.47
2024-04-15T08:07:34.235Z,95861.19
2024-04-15T08:10:06.402Z,95855.84
2024-04-15T08:12:33.216Z,95875.91
2024-04-15T08:15:02.714Z,95876.97
2024-04-15T08:17:29.504Z,95879.38
2024-04-15T08:19:58.917Z,95879.91
2024-04-15T08:22:25.807Z,95876.97
2024-04-15T08:24:55.300Z,95875.09
2024-04-15T08:27:25.383Z,95861.47
2024-04-15T08:29:55.208Z,95865.47
2024-04-15T08:32:22.058Z,95866.56
2024-04-15T08:34:51.470Z,95858.03
2024-04-15T08:37:19.158Z,95855.09
2024-04-15T08:39:48.790Z,95861.25
2024-04-15T08:42:22.933Z,95875.16
2024-04-15T08:44:55.555Z,95868.94
2024-04-15T08:47:28.533Z,95882.31
2024-04-15T08:49:58.087Z,95881.25
2024-04-15T08:52:25.312Z,95889.53
2024-04-15T08:54:55.870Z,95885.50
2024-04-15T08:57:23.255Z,95893.78
2024-04-15T08:59:56.547Z,95889.50
2024-04-15T09:02:23.459Z,95885.25
2024-04-15T09:04:57.287Z,95885.78
2024-04-15T09:07:25.995Z,95884.41
2024-04-15T09:09:55.483Z,95884.16
2024-04-15T09:12:22.328Z,95882.56
2024-04-15T09:14:52.435Z,95872.94
2024-04-15T09:17:22.261Z,95861.97
2024-04-15T09:19:52.634Z,95875.94
2024-04-15T09:22:19.552Z,95867.38
2024-04-15T09:24:49.045Z,95868.72
2024-04-15T09:27:16.338Z,95860.72
2024-04-15T09:29:49.539Z,95857.50
2024-04-15T09:32:18.741Z,95857.22
2024-04-15T09:34:55.738Z,95845.47
2024-04-15T09:37:23.082Z,95842.50
2024-04-15T09:39:54.211Z,95844.94
2024-04-15T09:42:21.752Z,95848.69
2024-04-15T09:44:52.218Z,95853.47
2024-04-15T09:47:19.659Z,95852.41
2024-04-15T09:49:52.275Z,95844.94
2024-04-15T09:52:24.023Z,95850.03
2024-04-15T09:54:55.131Z,95841.72
2024-04-15T09:57:24.990Z,95842.28
2024-04-15T09:59:59.936Z,95838.50
2024-04-15T10:02:28.180Z,95838.00
2024-04-15T10:05:03.665Z,95837.47
2024-04-15T10:07:31.083Z,95829.44
2024-04-15T10:10:01.965Z,95824.34
2024-04-15T10:12:30.087Z,95828.13
2024-04-15T10:15:00.266Z,95821.69
2024-04-15T10:17:28.080Z,95807.78
2024-04-15T10:20:11.487Z,95804.31
2024-04-15T10:22:39.314Z,95802.72
2024-04-15T10:25:11.779Z,95802.44
2024-04-15T10:27:39.058Z,95798.19
2024-04-15T10:30:15.424Z,95807.25
2024-04-15T10:32:44.521Z,95797.63
2024-04-15T10:35:25.710Z,95801.63
2024-04-15T10:37:52.749Z,95792.28
2024-04-15T10:40:23.463Z,95789.88
2024-04-15T10:42:50.405Z,95781.06
2024-04-15T10:45:21.699Z,95782.94
2024-04-15T10:47:48.470Z,95782.13
2024-04-15T10:50:18.242Z,95782.16
2024-04-15T10:52:47.797Z,95753.00
2024-04-15T10:55:17.572Z,95759.69
2024-04-15T10:57:45.776Z,95746.81
2024-04-15T11:00:17.128Z,95751.66
2024-04-15T11:02:46.331Z,95747.66
2024-04-15T11:05:17.189Z,95750.84
2024-04-15T11:07:48.289Z,95737.78
2024-04-15T11:10:18.864Z,95736.97
2024-04-15T11:12:47.288Z,95740.16
2024-04-15T11:15:19.850Z,95737.50
2024-04-15T11:17:47.041Z,95731.59
2024-04-15T11:20:16.840Z,95725.44
2024-04-15T11:22:44.075Z,95723.88
2024-04-15T11:25:17.088Z,95715.84
2024-04-15T11:27:47.725Z,95697.69
2024-04-15T11:30:22.199Z,95696.88
2024-04-15T11:32:49.711Z,95687.78
2024-04-15T11:35:19.329Z,95678.69
2024-04-15T11:37:52.582Z,95668.00
2024-04-15T11:40:24.885Z,95668.00
2024-04-15T11:42:52.610Z,95666.09
2024-04-15T11:45:22.042Z,95665.31
2024-04-15T11:47:52.751Z,95665.84
2024-04-15T11:50:22.530Z,95668.81
2024-04-15T11:52:49.808Z,95649.28
2024-04-15T11:55:21.125Z,95646.09
2024-04-15T11:57:51.063Z,95630.31
2024-04-15T12:00:21.393Z,95617.47
2024-04-15T12:02:48.651Z,95609.19
2024-04-15T12:05:18.225Z,95605.19
2024-04-15T12:07:45.315Z,95609.69
2024-04-15T12:10:16.416Z,95602.78
2024-04-15T12:12:43.687Z,95593.66
2024-04-15T12:15:15.695Z,95601.94
2024-04-15T12:17:42.651Z,95595.81
2024-04-15T12:20:13.165Z,95593.16
2024-04-15T12:22:42.632Z,95578.69
2024-04-15T12:25:11.042Z,95582.94
2024-04-15T12:27:45.154Z,95563.94
2024-04-15T12:30:15.573Z,95565.28
2024-04-15T12:32:45.230Z,95566.38
2024-04-15T12:35:12.524Z,95562.63
2024-04-15T12:37:42.252Z,95551.13
2024-04-15T12:40:11.636Z,95543.13
2024-04-15T12:42:41.188Z,95546.81
2024-04-15T12:45:08.119Z,95527.00
2024-04-15T12:47:40.587Z,95517.88
2024-04-15T12:50:08.476Z,95534.19
2024-04-15T12:52:40.696Z,95525.97
2024-04-15T12:55:07.857Z,95533.16
2024-04-15T12:57:37.812Z,95516.34
2024-04-15T13:00:06.220Z,95511.53
2024-04-15T13:02:39.631Z,95496.03
2024-04-15T13:05:09.355Z,95485.06
2024-04-15T13:07:38.920Z,95471.94
2024-04-15T13:10:06.973Z,95482.88
2024-04-15T13:12:36.480Z,95477.81
2024-04-15T13:15:03.615Z,95469.00
2024-04-15T13:17:33.124Z,95461.53
2024-04-15T13:20:00.024Z,95474.91
2024-04-15T13:22:32.378Z,95462.59
2024-04-15T13:24:59.373Z,95446.28
2024-04-15T13:27:28.885Z,95439.03
2024-04-15T13:29:55.778Z,95431.84
2024-04-15T13:32:25.711Z,95435.84
2024-04-15T13:34:54.969Z,95426.50
2024-04-15T13:37:25.029Z,95430.78
2024-04-15T13:39:54.646Z,95447.63
2024-04-15T13:42:24.184Z,95444.94
2024-04-15T13:44:51.085Z,95448.94
2024-04-15T13:47:20.554Z,95450.28
2024-04-15T13:49:47.325Z,95454.63
2024-04-15T13:52:16.868Z,95450.34
2024-04-15T13:54:44.676Z,95450.28
2024-04-15T13:57:16.809Z,95451.59
2024-04-15T13:59:43.628Z,95447.53
2024-04-15T14:02:14.039Z,95443.81
2024-04-15T14:04:41.616Z,95450.75
2024-04-15T14:07:11.346Z,95429.34
2024-04-15T14:09:38.195Z,95431.25
2024-04-15T14:12:07.966Z,95434.47
2024-04-15T14:14:38.431Z,95421.88
2024-04-15T14:17:12.918Z,95410.41
2024-04-15T14:19:40.030Z,95403.72
2024-04-15T14:22:09.519Z,95397.28
2024-04-15T14:24:36.388Z,95386.06
2024-04-15T14:27:06.416Z,95393.56
2024-04-15T14:29:33.553Z,95401.06
2024-04-15T14:32:05.935Z,95392.25
2024-04-15T14:34:33.931Z,95383.16
2024-04-15T14:37:04.619Z,95372.75
2024-04-15T14:39:31.600Z,95362.03
2024-04-15T14:42:01.473Z,95364.19
2024-04-15T14:44:28.433Z,95374.88
2024-04-15T14:46:57.996Z,95372.19
2024-04-15T14:49:28.896Z,95368.75
2024-04-15T14:51:58.734Z,95363.41
2024-04-15T14:54:25.735Z,95366.06
2024-04-15T14:56:56.798Z,95363.66
2024-04-15T14:59:23.914Z,95366.03
2024-04-15T15:01:53.394Z,95349.69
2024-04-15T15:04:20.378Z,95341.66
2024-04-15T15:06:53.126Z,95340.59
2024-04-15T15:09:19.944Z,95334.75
2024-04-15T15:11:49.437Z,95337.69
2024-04-15T15:14:16.500Z,95324.91
2024-04-15T15:16:46.088Z,95329.44
2024-04-15T15:19:12.981Z,95318.72
2024-04-15T15:21:42.448Z,95329.44
2024-04-15T15:24:11.864Z,95334.25
2024-04-15T15:26:41.881Z,95323.56
2024-04-15T15:29:12.523Z,95325.47
2024-04-15T15:31:42.220Z,95303.53
2024-04-15T15:34:09.038Z,95299.00
2024-04-15T15:36:38.514Z,95306.19
2024-04-15T15:39:07.949Z,95311.56
2024-04-15T15:41:40.388Z,95311.56
2024-04-15T15:44:07.312Z,95301.97
2024-04-15T15:46:36.851Z,95309.16
2024-04-15T15:49:03.894Z,95304.91
2024-04-15T15:51:37.040Z,95304.13
2024-04-15T15:54:04.099Z,95311.84
2024-04-15T15:56:33.930Z,95288.09
2024-04-15T15:59:03.844Z,95297.16
2024-04-15T16:01:34.838Z,95289.94
2024-04-15T16:04:01.881Z,95300.91
2024-04-15T16:06:31.406Z,95297.16
2024-04-15T16:08:58.387Z,95292.63
2024-04-15T16:11:35.646Z,95293.72
2024-04-15T16:14:11.793Z,95294.22
2024-04-15T16:16:41.456Z,95286.19
2024-04-15T16:19:10.446Z,95286.19
2024-04-15T16:21:40.539Z,95301.44
2024-04-15T16:24:08.139Z,95297.97
2024-04-15T16:26:38.086Z,95279.25
2024-04-15T16:29:05.578Z,95281.69
2024-04-15T16:31:38.108Z,95274.75
2024-04-15T16:34:05.652Z,95273.97
2024-04-15T16:36:35.767Z,95287.31
2024-04-15T16:39:02.694Z,95275.56
2024-04-15T16:41:32.216Z,95278.22
2024-04-15T16:43:59.088Z,95301.19
2024-04-15T16:46:28.627Z,95298.53
2024-04-15T16:48:58.258Z,95314.56
2024-04-15T16:51:27.756Z,95295.84
2024-04-15T16:53:54.606Z,95314.84
2024-04-15T16:56:24.078Z,95313.78
2024-04-15T16:58:51.009Z,95304.16
2024-04-15T17:01:20.512Z,95311.38
2024-04-15T17:03:47.544Z,95319.41
2024-04-15T17:06:19.740Z,95308.19
2024-04-15T17:08:46.794Z,95321.84
2024-04-15T17:11:16.303Z,95316.50
2024-04-15T17:13:43.157Z,95316.78
2024-04-15T17:16:13.273Z,95318.63
2024-04-15T17:18:40.513Z,95327.75
2024-04-15T17:21:09.997Z,95325.06
2024-04-15T17:23:39.694Z,95328.31
2024-04-15T17:26:09.747Z,95332.81
2024-04-15T17:28:36.607Z,95329.66
2024-04-15T17:31:06.448Z,95324.31
2024-04-15T17:33:33.483Z,95333.38
2024-04-15T17:36:03.254Z,95339.53
2024-04-15T17:38:30.217Z,95335.28
2024-04-15T17:41:02.283Z,95333.66
2024-04-15T17:43:29.246Z,95333.16
2024-04-15T17:45:59.908Z,95340.38
2024-04-15T17:48:27.537Z,95343.34
2024-04-15T17:50:56.980Z,95346.00
2024-04-15T17:53:24.346Z,95348.69
2024-04-15T17:55:54.017Z,95340.94
2024-04-15T17:58:23.576Z,95346.56
2024-04-15T18:00:53.146Z,95352.97
2024-04-15T18:03:20.109Z,95358.59
2024-04-15T18:05:49.587Z,95357.00
2024-04-15T18:08:16.439Z,95357.28
2024-04-15T18:10:45.906Z,95359.97
2024-04-15T18:13:13.150Z,95371.72
2024-04-15T18:15:46.320Z,95350.59
2024-04-15T18:18:15.358Z,95359.38
2024-04-15T18:20:45.754Z,95364.22
2024-04-15T18:23:12.637Z,95373.03
2024-04-15T18:25:42.622Z,95374.13
2024-04-15T18:28:10.392Z,95367.16
2024-04-15T18:30:39.831Z,95375.19
2024-04-15T18:33:09.638Z,95375.47
2024-04-15T18:35:39.470Z,95380.81
2024-04-15T18:38:06.448Z,95368.50
2024-04-15T18:40:36.117Z,95390.69
2024-04-15T18:43:03.403Z,95393.38
2024-04-15T18:45:32.881Z,95397.91
2024-04-15T18:48:01.545Z,95394.94
2024-04-15T18:50:33.913Z,95416.31
2024-04-15T18:53:01.262Z,95417.94
2024-04-15T18:55:31.694Z,95420.59
2024-04-15T18:57:58.891Z,95420.59
2024-04-15T19:00:28.536Z,95421.66
2024-04-15T19:02:55.496Z,95444.13
2024-04-15T19:05:25.255Z,95454.00
2024-04-15T19:07:54.712Z,95454.81
2024-04-15T19:10:24.258Z,95466.28
2024-04-15T19:12:52.166Z,95447.88
2024-04-15T19:15:23.299Z,95469.50
2024-04-15T19:17:50.336Z,95466.56
2024-04-15T19:20:21.362Z,95471.13
2024-04-15T19:22:48.235Z,95450.03
2024-04-15T19:25:20.553Z,95463.38
2024-04-15T19:27:47.488Z,95442.00
2024-04-15T19:30:16.969Z,95422.75
2024-04-15T19:32:43.924Z,95422.75
2024-04-15T19:35:13.425Z,95414.75
2024-04-15T19:37:40.449Z,95420.66
2024-04-15T19:40:12.507Z,95398.22
2024-04-15T19:42:42.002Z,95392.88
2024-04-15T19:45:12.243Z,95407.31
2024-04-15T19:47:39.470Z,95440.44
2024-04-15T19:50:09.782Z,95426.56
2024-04-15T19:52:36.652Z,95419.63
2024-04-15T19:55:06.837Z,95436.44
2024-04-15T19:57:34.081Z,95442.88
2024-04-15T20:00:06.566Z,95427.91
2024-04-15T20:02:34.011Z,95441.53
2024-04-15T20:05:03.745Z,95457.56
2024-04-15T20:07:32.093Z,95440.75
2024-04-15T20:10:02.493Z,95444.47
2024-04-15T20:12:32.245Z,95460.50
2024-04-15T20:15:02.319Z,95447.41
2024-04-15T20:17:44.441Z,95434.06
2024-04-15T20:20:14.891Z,95451.16
2024-04-15T20:22:44.989Z,95435.41
2024-04-15T20:25:12.483Z,95447.16
2024-04-15T20:27:42.296Z,95438.06
2024-04-15T20:30:09.597Z,95443.16
2024-04-15T20:32:43.942Z,95459.19
2024-04-15T20:35:11.724Z,95459.72
2024-04-15T20:37:41.599Z,95455.19
2024-04-15T20:40:09.715Z,95463.19
2024-04-15T20:42:40.245Z,95473.88
2024-04-15T20:45:07.776Z,95470.41
2024-04-15T20:47:37.342Z,95462.94
2024-04-15T20:50:07.911Z,95477.91
2024-04-15T20:52:37.507Z,95453.34
2024-04-15T20:55:05.355Z,95457.88
2024-04-15T20:57:34.901Z,95431.44
2024-04-15T21:00:02.007Z,95458.44
2024-04-15T21:02:31.650Z,95471.78
2024-04-15T21:04:58.605Z,95453.34
2024-04-15T21:07:30.800Z,95449.38
2024-04-15T21:09:57.696Z,95453.91
2024-04-15T21:12:27.247Z,95438.16
2024-04-15T21:14:54.194Z,95459.78
2024-04-15T21:17:23.783Z,95450.97
2024-04-15T21:19:50.734Z,95461.16
2024-04-15T21:22:20.395Z,95451.78
2024-04-15T21:24:50.001Z,95452.06
2024-04-15T21:27:20.427Z,95457.41
2024-04-15T21:29:47.364Z,95455.00
2024-04-15T21:32:16.994Z,95448.06
2024-04-15T21:34:43.960Z,95443.00
2024-04-15T21:37:13.856Z,95453.97
2024-04-15T21:39:40.679Z,95467.59
2024-04-15T21:42:12.787Z,95465.19
2024-04-15T21:44:39.590Z,95479.59
2024-04-15T21:47:13.255Z,95481.75
2024-04-15T21:49:40.721Z,95489.75
2024-04-15T21:52:10.783Z,95485.75
2024-04-15T21:54:37.606Z,95488.16
2024-04-15T21:57:07.878Z,95484.66
2024-04-15T21:59:37.311Z,95491.88
2024-04-15T22:02:06.837Z,95482.25
2024-04-15T22:04:44.320Z,95480.69
2024-04-15T22:07:22.980Z,95482.81
2024-04-15T22:09:49.877Z,95496.16
2024-04-15T22:12:19.332Z,95498.28
2024-04-15T22:14:48.821Z,95499.34
2024-04-15T22:17:18.396Z,95498.56
2024-04-15T22:19:45.318Z,95481.50
2024-04-15T22:22:14.769Z,95495.91
2024-04-15T22:24:41.685Z,95476.44
2024-04-15T22:27:11.171Z,95494.28
2024-04-15T22:29:38.010Z,95489.22
2024-04-15T22:32:10.238Z,95499.09
2024-04-15T22:34:37.112Z,95486.00
2024-04-15T22:37:07.098Z,95491.88
2024-04-15T22:39:33.915Z,95518.81
2024-04-15T22:42:03.381Z,95514.28
2024-04-15T22:44:32.889Z,95496.69
2024-04-15T22:46:59.802Z,95511.88
2024-04-15T22:49:32.004Z,95536.16
2024-04-15T22:51:58.958Z,95530.03
2024-04-15T22:54:28.567Z,95531.91
2024-04-15T22:56:55.446Z,95540.69
2024-04-15T22:59:24.904Z,95552.69
2024-04-15T23:01:51.800Z,95561.78
2024-04-15T23:04:21.359Z,95572.72
2024-04-15T23:06:50.794Z,95563.88
2024-04-15T23:09:20.162Z,95556.16
2024-04-15T23:11:47.050Z,95559.13
2024-04-15T23:14:16.453Z,95550.28
2024-04-15T23:16:43.677Z,95553.22
2024-04-15T23:19:13.142Z,95555.09
2024-04-15T23:21:40.060Z,95558.03
2024-04-15T23:24:12.115Z,95554.84
2024-04-15T23:26:38.932Z,95551.34
2024-04-15T23:29:08.395Z,95571.38
2024-04-15T23:31:35.224Z,95570.81
2024-04-15T23:34:04.722Z,95574.56
2024-04-15T23:36:31.602Z,95586.28
2024-04-15T23:39:01.439Z,95583.09
2024-04-15T23:41:30.935Z,95579.59
2024-04-15T23:44:00.358Z,95583.34
2024-04-15T23:46:27.270Z,95590.78
2024-04-15T23:48:56.820Z,95591.06
2024-04-15T23:51:23.662Z,95587.88
2024-04-15T23:53:53.162Z,95587.06
2024-04-15T23:56:19.982Z,95574.78
2024-04-15T23:58:52.016Z,95571.59
